sensor_id;sensor_type;location;lat;lon;timestamp;pressure;altitude;pressure_sealevel;temperature;humidity
32873;BME280;19224;52.462;16.898;2023-02-27T00:01:07;101114.55;;;0.37;100.00
32873;BME280;19224;52.462;16.898;2023-02-27T00:03:38;101121.98;;;0.29;100.00
32873;BME280;19224;52.462;16.898;2023-02-27T00:06:09;101120.20;;;0.28;100.00
32873;BME280;19224;52.462;16.898;2023-02-27T00:08:39;101118.89;;;0.28;100.00
32873;BME280;19224;52.462;16.898;2023-02-27T00:11:10;101126.36;;;0.25;100.00
32873;BME280;19224;52.462;16.898;2023-02-27T00:13:41;101129.03;;;0.27;100.00
32873;BME280;19224;52.462;16.898;2023-02-27T00:16:12;101122.31;;;0.18;100.00
32873;BME280;19224;52.462;16.898;2023-02-27T00:18:42;101124.41;;;0.08;100.00
32873;BME280;19224;52.462;16.898;2023-02-27T00:21:13;101121.75;;;0.05;100.00
32873;BME280;19224;52.462;16.898;2023-02-27T00:23:44;101116.47;;;0.08;100.00
32873;BME280;19224;52.462;16.898;2023-02-27T00:26:14;101116.88;;;0.03;100.00
32873;BME280;19224;52.462;16.898;2023-02-27T00:28:45;101116.38;;;-0.02;100.00
32873;BME280;19224;52.462;16.898;2023-02-27T00:31:16;101117.68;;;-0.05;100.00
32873;BME280;19224;52.462;16.898;2023-02-27T00:33:46;101118.97;;;-0.07;100.00
32873;BME280;19224;52.462;16.898;2023-02-27T00:36:17;101125.56;;;-0.10;100.00
32873;BME280;19224;52.462;16.898;2023-02-27T00:38:47;101126.78;;;-0.19;100.00
32873;BME280;19224;52.462;16.898;2023-02-27T00:41:18;101124.23;;;-0.08;100.00
32873;BME280;19224;52.462;16.898;2023-02-27T00:43:49;101125.09;;;-0.12;100.00
32873;BME280;19224;52.462;16.898;2023-02-27T00:46:20;101126.84;;;-0.14;100.00
32873;BME280;19224;52.462;16.898;2023-02-27T00:48:50;101120.32;;;-0.04;100.00
32873;BME280;19224;52.462;16.898;2023-02-27T00:51:21;101127.77;;;-0.11;100.00
32873;BME280;19224;52.462;16.898;2023-02-27T00:53:52;101130.70;;;-0.23;100.00
32873;BME280;19224;52.462;16.898;2023-02-27T00:56:22;101134.64;;;-0.26;100.00
32873;BME280;19224;52.462;16.898;2023-02-27T00:58:53;101139.50;;;-0.23;100.00
32873;BME280;19224;52.462;16.898;2023-02-27T01:01:24;101137.39;;;-0.16;100.00
32873;BME280;19224;52.462;16.898;2023-02-27T01:03:54;101128.89;;;-0.27;100.00
32873;BME280;19224;52.462;16.898;2023-02-27T01:06:25;101135.51;;;-0.26;100.00
32873;BME280;19224;52.462;16.898;2023-02-27T01:08:56;101130.66;;;-0.25;100.00
32873;BME280;19224;52.462;16.898;2023-02-27T01:11:27;101132.78;;;-0.33;100.00
32873;BME280;19224;52.462;16.898;2023-02-27T01:13:58;101137.47;;;-0.46;100.00
32873;BME280;19224;52.462;16.898;2023-02-27T01:16:29;101130.77;;;-0.52;100.00
32873;BME280;19224;52.462;16.898;2023-02-27T01:18:59;101138.19;;;-0.59;100.00
32873;BME280;19224;52.462;16.898;2023-02-27T01:21:30;101138.22;;;-0.56;100.00
32873;BME280;19224;52.462;16.898;2023-02-27T01:24:01;101137.77;;;-0.56;100.00
32873;BME280;19224;52.462;16.898;2023-02-27T01:26:32;101137.38;;;-0.52;100.00
32873;BME280;19224;52.462;16.898;2023-02-27T01:29:03;101139.48;;;-0.61;100.00
32873;BME280;19224;52.462;16.898;2023-02-27T01:31:34;101142.22;;;-0.55;100.00
32873;BME280;19224;52.462;16.898;2023-02-27T01:34:05;101145.70;;;-0.56;100.00
32873;BME280;19224;52.462;16.898;2023-02-27T01:36:35;101143.58;;;-0.52;100.00
32873;BME280;19224;52.462;16.898;2023-02-27T01:39:06;101141.70;;;-0.59;100.00
32873;BME280;19224;52.462;16.898;2023-02-27T01:41:36;101138.61;;;-0.60;100.00
32873;BME280;19224;52.462;16.898;2023-02-27T01:44:10;101136.25;;;-0.71;100.00
32873;BME280;19224;52.462;16.898;2023-02-27T01:46:42;101141.16;;;-0.67;100.00
32873;BME280;19224;52.462;16.898;2023-02-27T01:49:26;101136.80;;;-0.64;100.00
32873;BME280;19224;52.462;16.898;2023-02-27T01:52:05;101138.03;;;-0.70;100.00
32873;BME280;19224;52.462;16.898;2023-02-27T01:54:39;101139.90;;;-0.63;100.00
32873;BME280;19224;52.462;16.898;2023-02-27T01:57:12;101142.16;;;-0.58;100.00
32873;BME280;19224;52.462;16.898;2023-02-27T01:59:44;101132.54;;;-0.53;100.00
32873;BME280;19224;52.462;16.898;2023-02-27T02:02:22;101146.70;;;-0.48;100.00
32873;BME280;19224;52.462;16.898;2023-02-27T02:04:54;101140.54;;;-0.48;100.00
32873;BME280;19224;52.462;16.898;2023-02-27T02:07:25;101146.22;;;-0.52;100.00
32873;BME280;19224;52.462;16.898;2023-02-27T02:09:59;101151.28;;;-0.67;100.00
32873;BME280;19224;52.462;16.898;2023-02-27T02:12:36;101156.57;;;-0.67;100.00
32873;BME280;19224;52.462;16.898;2023-02-27T02:15:08;101154.73;;;-0.72;100.00
32873;BME280;19224;52.462;16.898;2023-02-27T02:23:56;101159.60;;;-0.72;100.00
32873;BME280;19224;52.462;16.898;2023-02-27T02:29:40;101151.70;;;-0.70;100.00
32873;BME280;19224;52.462;16.898;2023-02-27T02:35:24;101158.21;;;-0.76;100.00
32873;BME280;19224;52.462;16.898;2023-02-27T02:41:08;101160.82;;;-0.78;100.00
32873;BME280;19224;52.462;16.898;2023-02-27T02:44:38;101166.98;;;-0.79;100.00
32873;BME280;19224;52.462;16.898;2023-02-27T02:47:19;101169.45;;;-0.91;100.00
32873;BME280;19224;52.462;16.898;2023-02-27T02:50:28;101173.59;;;-0.80;100.00
32873;BME280;19224;52.462;16.898;2023-02-27T02:55:52;101176.61;;;-0.84;100.00
32873;BME280;19224;52.462;16.898;2023-02-27T02:58:57;101176.05;;;-0.91;100.00
32873;BME280;19224;52.462;16.898;2023-02-27T03:01:44;101176.16;;;-0.85;100.00
32873;BME280;19224;52.462;16.898;2023-02-27T03:04:37;101182.32;;;-0.86;100.00
32873;BME280;19224;52.462;16.898;2023-02-27T03:07:24;101193.34;;;-0.85;100.00
32873;BME280;19224;52.462;16.898;2023-02-27T03:09:56;101189.45;;;-0.79;100.00
32873;BME280;19224;52.462;16.898;2023-02-27T03:12:23;101187.67;;;-0.81;100.00
32873;BME280;19224;52.462;16.898;2023-02-27T03:15:12;101185.83;;;-0.87;100.00
32873;BME280;19224;52.462;16.898;2023-02-27T03:17:54;101192.97;;;-0.81;100.00
32873;BME280;19224;52.462;16.898;2023-02-27T03:20:40;101191.75;;;-0.74;100.00
32873;BME280;19224;52.462;16.898;2023-02-27T03:23:12;101197.56;;;-0.67;100.00
32873;BME280;19224;52.462;16.898;2023-02-27T03:25:44;101198.36;;;-0.74;100.00
32873;BME280;19224;52.462;16.898;2023-02-27T03:28:26;101199.37;;;-0.66;100.00
32873;BME280;19224;52.462;16.898;2023-02-27T03:31:05;101201.42;;;-0.74;100.00
32873;BME280;19224;52.462;16.898;2023-02-27T03:33:48;101203.23;;;-0.72;100.00
32873;BME280;19224;52.462;16.898;2023-02-27T03:45:22;101207.38;;;-0.60;100.00
32873;BME280;19224;52.462;16.898;2023-02-27T03:47:53;101206.25;;;-0.45;100.00
32873;BME280;19224;52.462;16.898;2023-02-27T03:50:24;101210.31;;;-0.39;100.00
32873;BME280;19224;52.462;16.898;2023-02-27T03:52:55;101213.13;;;-0.27;100.00
32873;BME280;19224;52.462;16.898;2023-02-27T03:55:35;101217.19;;;-0.19;100.00
32873;BME280;19224;52.462;16.898;2023-02-27T03:58:07;101223.80;;;-0.19;100.00
32873;BME280;19224;52.462;16.898;2023-02-27T04:00:38;101226.90;;;-0.20;100.00
32873;BME280;19224;52.462;16.898;2023-02-27T04:03:10;101230.91;;;-0.17;100.00
32873;BME280;19224;52.462;16.898;2023-02-27T04:05:41;101237.61;;;-0.11;100.00
32873;BME280;19224;52.462;16.898;2023-02-27T04:08:42;101233.73;;;-0.02;100.00
32873;BME280;19224;52.462;16.898;2023-02-27T04:17:15;101238.78;;;0.12;100.00
32873;BME280;19224;52.462;16.898;2023-02-27T04:20:16;101246.36;;;0.20;100.00
32873;BME280;19224;52.462;16.898;2023-02-27T04:22:54;101245.56;;;0.27;100.00
32873;BME280;19224;52.462;16.898;2023-02-27T04:25:53;101249.09;;;0.26;100.00
32873;BME280;19224;52.462;16.898;2023-02-27T04:31:27;101251.03;;;0.05;100.00
32873;BME280;19224;52.462;16.898;2023-02-27T04:37:00;101258.55;;;0.06;100.00
32873;BME280;19224;52.462;16.898;2023-02-27T04:39:44;101259.45;;;0.06;100.00
32873;BME280;19224;52.462;16.898;2023-02-27T04:42:17;101259.39;;;0.02;100.00
32873;BME280;19224;52.462;16.898;2023-02-27T04:44:49;101254.33;;;-0.12;100.00
32873;BME280;19224;52.462;16.898;2023-02-27T04:47:23;101257.98;;;-0.04;100.00
32873;BME280;19224;52.462;16.898;2023-02-27T04:50:20;101255.75;;;-0.06;100.00
32873;BME280;19224;52.462;16.898;2023-02-27T04:53:47;101252.33;;;0.01;100.00
32873;BME280;19224;52.462;16.898;2023-02-27T04:55:32;101251.81;;;-0.04;100.00
32873;BME280;19224;52.462;16.898;2023-02-27T04:58:10;101258.39;;;-0.06;100.00
32873;BME280;19224;52.462;16.898;2023-02-27T05:00:44;101258.72;;;-0.14;100.00
32873;BME280;19224;52.462;16.898;2023-02-27T05:03:21;101260.89;;;-0.18;100.00
32873;BME280;19224;52.462;16.898;2023-02-27T05:05:56;101266.20;;;-0.15;100.00
32873;BME280;19224;52.462;16.898;2023-02-27T05:08:42;101271.53;;;-0.12;100.00
32873;BME280;19224;52.462;16.898;2023-02-27T05:11:29;101267.18;;;-0.10;100.00
32873;BME280;19224;52.462;16.898;2023-02-27T05:14:12;101270.63;;;-0.14;100.00
32873;BME280;19224;52.462;16.898;2023-02-27T05:17:12;101278.99;;;-0.16;100.00
32873;BME280;19224;52.462;16.898;2023-02-27T05:19:41;101280.31;;;-0.16;100.00
32873;BME280;19224;52.462;16.898;2023-02-27T05:25:22;101282.77;;;0.02;100.00
32873;BME280;19224;52.462;16.898;2023-02-27T05:30:55;101288.67;;;0.14;100.00
32873;BME280;19224;52.462;16.898;2023-02-27T05:33:37;101290.39;;;0.10;100.00
32873;BME280;19224;52.462;16.898;2023-02-27T05:36:24;101286.80;;;0.07;100.00
32873;BME280;19224;52.462;16.898;2023-02-27T05:39:02;101289.48;;;0.08;100.00
32873;BME280;19224;52.462;16.898;2023-02-27T05:42:30;101290.47;;;0.18;100.00
32873;BME280;19224;52.462;16.898;2023-02-27T05:44:20;101302.97;;;0.28;100.00
32873;BME280;19224;52.462;16.898;2023-02-27T05:47:04;101301.22;;;0.30;100.00
32873;BME280;19224;52.462;16.898;2023-02-27T05:49:53;101297.58;;;0.22;100.00
32873;BME280;19224;52.462;16.898;2023-02-27T05:52:25;101302.09;;;0.29;100.00
32873;BME280;19224;52.462;16.898;2023-02-27T05:55:11;101308.20;;;0.23;100.00
32873;BME280;19224;52.462;16.898;2023-02-27T06:01:04;101316.30;;;0.34;100.00
32873;BME280;19224;52.462;16.898;2023-02-27T06:03:37;101319.91;;;0.40;100.00
32873;BME280;19224;52.462;16.898;2023-02-27T06:06:17;101324.61;;;0.29;100.00
32873;BME280;19224;52.462;16.898;2023-02-27T06:08:48;101325.91;;;0.26;100.00
32873;BME280;19224;52.462;16.898;2023-02-27T06:11:18;101325.15;;;0.36;100.00
32873;BME280;19224;52.462;16.898;2023-02-27T06:13:49;101327.83;;;0.39;100.00
32873;BME280;19224;52.462;16.898;2023-02-27T06:16:19;101327.73;;;0.31;100.00
32873;BME280;19224;52.462;16.898;2023-02-27T06:18:50;101333.97;;;0.35;100.00
32873;BME280;19224;52.462;16.898;2023-02-27T06:21:21;101330.50;;;0.40;100.00
32873;BME280;19224;52.462;16.898;2023-02-27T06:23:51;101330.14;;;0.47;100.00
32873;BME280;19224;52.462;16.898;2023-02-27T06:26:22;101326.20;;;0.50;100.00
32873;BME280;19224;52.462;16.898;2023-02-27T06:28:52;101331.83;;;0.40;100.00
32873;BME280;19224;52.462;16.898;2023-02-27T06:31:23;101327.70;;;0.30;100.00
32873;BME280;19224;52.462;16.898;2023-02-27T06:33:54;101331.80;;;0.39;100.00
32873;BME280;19224;52.462;16.898;2023-02-27T06:36:24;101334.12;;;0.47;100.00
32873;BME280;19224;52.462;16.898;2023-02-27T06:38:58;101331.09;;;0.55;100.00
32873;BME280;19224;52.462;16.898;2023-02-27T06:41:29;101335.22;;;0.65;100.00
32873;BME280;19224;52.462;16.898;2023-02-27T06:43:59;101341.73;;;0.56;100.00
32873;BME280;19224;52.462;16.898;2023-02-27T06:46:30;101338.57;;;0.51;100.00
32873;BME280;19224;52.462;16.898;2023-02-27T06:49:00;101339.59;;;0.62;100.00
32873;BME280;19224;52.462;16.898;2023-02-27T06:51:31;101346.80;;;0.75;100.00
32873;BME280;19224;52.462;16.898;2023-02-27T06:54:02;101351.23;;;0.74;100.00
32873;BME280;19224;52.462;16.898;2023-02-27T06:56:32;101357.77;;;0.67;100.00
32873;BME280;19224;52.462;16.898;2023-02-27T06:59:03;101356.45;;;0.67;100.00
32873;BME280;19224;52.462;16.898;2023-02-27T07:01:34;101359.21;;;0.77;100.00
32873;BME280;19224;52.462;16.898;2023-02-27T07:04:05;101363.71;;;0.86;100.00
32873;BME280;19224;52.462;16.898;2023-02-27T07:06:35;101370.42;;;0.92;100.00
32873;BME280;19224;52.462;16.898;2023-02-27T07:09:06;101369.53;;;0.90;100.00
32873;BME280;19224;52.462;16.898;2023-02-27T07:11:37;101371.33;;;0.94;100.00
32873;BME280;19224;52.462;16.898;2023-02-27T07:14:07;101376.20;;;0.96;100.00
32873;BME280;19224;52.462;16.898;2023-02-27T07:16:38;101374.50;;;1.02;100.00
32873;BME280;19224;52.462;16.898;2023-02-27T07:19:09;101389.16;;;1.10;100.00
32873;BME280;19224;52.462;16.898;2023-02-27T07:21:40;101382.52;;;1.07;100.00
32873;BME280;19224;52.462;16.898;2023-02-27T07:24:10;101379.83;;;1.04;100.00
32873;BME280;19224;52.462;16.898;2023-02-27T07:26:41;101394.84;;;1.03;100.00
32873;BME280;19224;52.462;16.898;2023-02-27T07:29:12;101397.37;;;0.90;100.00
32873;BME280;19224;52.462;16.898;2023-02-27T07:31:43;101406.70;;;0.96;100.00
32873;BME280;19224;52.462;16.898;2023-02-27T07:34:13;101397.76;;;0.88;100.00
32873;BME280;19224;52.462;16.898;2023-02-27T07:36:44;101395.61;;;0.93;100.00
32873;BME280;19224;52.462;16.898;2023-02-27T07:39:15;101393.89;;;0.97;100.00
32873;BME280;19224;52.462;16.898;2023-02-27T07:41:48;101408.00;;;0.93;100.00
32873;BME280;19224;52.462;16.898;2023-02-27T07:44:21;101394.90;;;1.06;100.00
32873;BME280;19224;52.462;16.898;2023-02-27T07:46:51;101405.61;;;1.17;100.00
32873;BME280;19224;52.462;16.898;2023-02-27T07:49:22;101396.77;;;1.18;100.00
32873;BME280;19224;52.462;16.898;2023-02-27T07:51:52;101401.33;;;1.29;100.00
32873;BME280;19224;52.462;16.898;2023-02-27T07:54:23;101406.63;;;1.31;100.00
32873;BME280;19224;52.462;16.898;2023-02-27T07:56:53;101405.88;;;1.42;100.00
32873;BME280;19224;52.462;16.898;2023-02-27T07:59:24;101401.32;;;1.31;100.00
32873;BME280;19224;52.462;16.898;2023-02-27T08:01:55;101404.05;;;1.38;100.00
32873;BME280;19224;52.462;16.898;2023-02-27T08:04:25;101409.40;;;1.43;100.00
32873;BME280;19224;52.462;16.898;2023-02-27T08:06:56;101416.03;;;1.43;100.00
32873;BME280;19224;52.462;16.898;2023-02-27T08:09:27;101416.08;;;1.47;100.00
32873;BME280;19224;52.462;16.898;2023-02-27T08:11:58;101410.02;;;1.59;100.00
32873;BME280;19224;52.462;16.898;2023-02-27T08:14:31;101421.19;;;1.72;100.00
32873;BME280;19224;52.462;16.898;2023-02-27T08:17:01;101412.05;;;1.90;100.00
32873;BME280;19224;52.462;16.898;2023-02-27T08:19:32;101417.85;;;2.00;100.00
32873;BME280;19224;52.462;16.898;2023-02-27T08:22:03;101422.36;;;2.10;100.00
32873;BME280;19224;52.462;16.898;2023-02-27T08:24:33;101416.16;;;2.11;100.00
32873;BME280;19224;52.462;16.898;2023-02-27T08:27:04;101423.25;;;2.07;100.00
32873;BME280;19224;52.462;16.898;2023-02-27T08:29:35;101428.89;;;1.95;100.00
32873;BME280;19224;52.462;16.898;2023-02-27T08:32:06;101428.08;;;2.02;100.00
32873;BME280;19224;52.462;16.898;2023-02-27T08:34:37;101432.45;;;1.97;100.00
32873;BME280;19224;52.462;16.898;2023-02-27T08:37:07;101429.42;;;2.05;100.00
32873;BME280;19224;52.462;16.898;2023-02-27T08:39:37;101436.97;;;2.10;100.00
32873;BME280;19224;52.462;16.898;2023-02-27T08:42:09;101445.49;;;2.24;100.00
32873;BME280;19224;52.462;16.898;2023-02-27T08:44:40;101439.33;;;2.29;100.00
32873;BME280;19224;52.462;16.898;2023-02-27T08:47:10;101440.79;;;2.47;100.00
32873;BME280;19224;52.462;16.898;2023-02-27T08:49:41;101442.14;;;2.53;100.00
32873;BME280;19224;52.462;16.898;2023-02-27T08:52:11;101434.27;;;2.74;100.00
32873;BME280;19224;52.462;16.898;2023-02-27T08:54:42;101448.50;;;2.79;100.00
32873;BME280;19224;52.462;16.898;2023-02-27T08:57:12;101451.05;;;2.61;100.00
32873;BME280;19224;52.462;16.898;2023-02-27T08:59:43;101450.24;;;2.73;100.00
32873;BME280;19224;52.462;16.898;2023-02-27T09:02:13;101455.11;;;2.76;100.00
32873;BME280;19224;52.462;16.898;2023-02-27T09:04:44;101446.77;;;2.92;100.00
32873;BME280;19224;52.462;16.898;2023-02-27T09:07:15;101446.78;;;2.96;100.00
32873;BME280;19224;52.462;16.898;2023-02-27T09:09:45;101457.91;;;3.06;100.00
32873;BME280;19224;52.462;16.898;2023-02-27T09:12:16;101452.99;;;2.95;100.00
32873;BME280;19224;52.462;16.898;2023-02-27T09:14:46;101457.86;;;2.91;100.00
32873;BME280;19224;52.462;16.898;2023-02-27T09:17:17;101468.88;;;2.82;100.00
32873;BME280;19224;52.462;16.898;2023-02-27T09:19:48;101460.43;;;2.76;100.00
32873;BME280;19224;52.462;16.898;2023-02-27T09:22:19;101460.10;;;2.95;100.00
32873;BME280;19224;52.462;16.898;2023-02-27T09:24:50;101460.53;;;2.94;100.00
32873;BME280;19224;52.462;16.898;2023-02-27T09:27:21;101466.30;;;2.98;100.00
32873;BME280;19224;52.462;16.898;2023-02-27T09:29:52;101470.77;;;3.02;100.00
32873;BME280;19224;52.462;16.898;2023-02-27T09:32:25;101473.45;;;3.10;100.00
32873;BME280;19224;52.462;16.898;2023-02-27T09:34:56;101473.50;;;3.25;100.00
32873;BME280;19224;52.462;16.898;2023-02-27T09:37:26;101468.66;;;3.35;100.00
32873;BME280;19224;52.462;16.898;2023-02-27T09:39:57;101474.48;;;3.51;100.00
32873;BME280;19224;52.462;16.898;2023-02-27T09:42:36;101482.05;;;3.60;100.00
32873;BME280;19224;52.462;16.898;2023-02-27T09:45:17;101475.39;;;3.71;100.00
32873;BME280;19224;52.462;16.898;2023-02-27T09:47:47;101478.95;;;3.74;100.00
32873;BME280;19224;52.462;16.898;2023-02-27T09:50:41;101481.20;;;3.84;100.00
32873;BME280;19224;52.462;16.898;2023-02-27T09:53:17;101479.42;;;3.93;100.00
32873;BME280;19224;52.462;16.898;2023-02-27T09:55:47;101478.97;;;4.03;100.00
32873;BME280;19224;52.462;16.898;2023-02-27T09:58:34;101481.20;;;4.06;100.00
32873;BME280;19224;52.462;16.898;2023-02-27T10:01:39;101481.22;;;3.96;100.00
32873;BME280;19224;52.462;16.898;2023-02-27T10:04:33;101476.32;;;4.04;100.00
32873;BME280;19224;52.462;16.898;2023-02-27T10:15:51;101491.42;;;4.34;98.83
32873;BME280;19224;52.462;16.898;2023-02-27T10:18:38;101490.98;;;4.34;98.52
32873;BME280;19224;52.462;16.898;2023-02-27T10:21:20;101494.95;;;4.43;98.05
32873;BME280;19224;52.462;16.898;2023-02-27T10:26:40;101499.84;;;4.42;98.60
32873;BME280;19224;52.462;16.898;2023-02-27T10:29:39;101498.51;;;4.56;98.38
32873;BME280;19224;52.462;16.898;2023-02-27T10:32:29;101501.63;;;4.58;97.88
32873;BME280;19224;52.462;16.898;2023-02-27T10:37:51;101502.52;;;4.33;93.22
32873;BME280;19224;52.462;16.898;2023-02-27T10:40:22;101506.09;;;4.38;93.51
32873;BME280;19224;52.462;16.898;2023-02-27T10:42:55;101493.66;;;4.34;93.78
32873;BME280;19224;52.462;16.898;2023-02-27T10:45:27;101498.97;;;4.40;94.57
32873;BME280;19224;52.462;16.898;2023-02-27T10:48:00;101496.32;;;4.30;93.99
32873;BME280;19224;52.462;16.898;2023-02-27T10:50:35;101499.44;;;4.11;93.76
32873;BME280;19224;52.462;16.898;2023-02-27T10:53:22;101491.41;;;4.16;94.84
32873;BME280;19224;52.462;16.898;2023-02-27T10:56:06;101496.31;;;4.12;94.64
32873;BME280;19224;52.462;16.898;2023-02-27T10:58:38;101494.52;;;4.09;94.34
32873;BME280;19224;52.462;16.898;2023-02-27T11:01:10;101495.00;;;4.22;94.36
32873;BME280;19224;52.462;16.898;2023-02-27T11:03:43;101488.31;;;4.33;92.12
32873;BME280;19224;52.462;16.898;2023-02-27T11:06:25;101497.64;;;4.46;92.36
32873;BME280;19224;52.462;16.898;2023-02-27T11:09:23;101499.84;;;4.42;91.18
32873;BME280;19224;52.462;16.898;2023-02-27T11:11:55;101486.95;;;4.43;90.86
32873;BME280;19224;52.462;16.898;2023-02-27T11:14:32;101489.62;;;4.39;89.68
32873;BME280;19224;52.462;16.898;2023-02-27T11:17:03;101499.41;;;4.28;88.97
32873;BME280;19224;52.462;16.898;2023-02-27T11:19:39;101489.65;;;4.16;88.41
32873;BME280;19224;52.462;16.898;2023-02-27T11:22:22;101495.88;;;4.12;86.89
32873;BME280;19224;52.462;16.898;2023-02-27T11:25:19;101488.33;;;4.01;87.84
32873;BME280;19224;52.462;16.898;2023-02-27T11:27:49;101487.44;;;4.07;88.81
32873;BME280;19224;52.462;16.898;2023-02-27T11:30:25;101494.54;;;3.96;87.49
32873;BME280;19224;52.462;16.898;2023-02-27T11:32:58;101496.72;;;3.87;86.02
32873;BME280;19224;52.462;16.898;2023-02-27T11:35:36;101501.17;;;3.82;87.39
32873;BME280;19224;52.462;16.898;2023-02-27T11:38:16;101495.39;;;3.77;86.75
32873;BME280;19224;52.462;16.898;2023-02-27T11:40:57;101490.52;;;3.85;88.40
32873;BME280;19224;52.462;16.898;2023-02-27T11:46:22;101482.98;;;4.04;88.85
32873;BME280;19224;52.462;16.898;2023-02-27T11:49:00;101488.77;;;4.11;88.88
32873;BME280;19224;52.462;16.898;2023-02-27T11:52:11;101489.64;;;4.19;85.31
32873;BME280;19224;52.462;16.898;2023-02-27T11:54:53;101497.19;;;4.30;84.06
32873;BME280;19224;52.462;16.898;2023-02-27T11:57:38;101492.77;;;4.26;80.08
32873;BME280;19224;52.462;16.898;2023-02-27T12:00:30;101490.97;;;4.31;77.26
32873;BME280;19224;52.462;16.898;2023-02-27T12:03:39;101490.52;;;4.30;77.59
32873;BME280;19224;52.462;16.898;2023-02-27T12:06:27;101488.30;;;4.40;77.62
32873;BME280;19224;52.462;16.898;2023-02-27T12:09:47;101482.50;;;4.51;76.93
32873;BME280;19224;52.462;16.898;2023-02-27T12:15:55;101482.94;;;4.55;71.40
32873;BME280;19224;52.462;16.898;2023-02-27T12:21:55;101488.28;;;4.39;76.33
32873;BME280;19224;52.462;16.898;2023-02-27T12:24:53;101487.87;;;4.41;77.57
32873;BME280;19224;52.462;16.898;2023-02-27T12:30:58;101485.17;;;4.56;76.08
32873;BME280;19224;52.462;16.898;2023-02-27T12:33:31;101484.27;;;4.67;74.97
32873;BME280;19224;52.462;16.898;2023-02-27T12:36:01;101481.59;;;4.70;74.86
32873;BME280;19224;52.462;16.898;2023-02-27T12:38:33;101485.14;;;4.78;74.03
32873;BME280;19224;52.462;16.898;2023-02-27T12:41:25;101483.34;;;4.84;73.31
32873;BME280;19224;52.462;16.898;2023-02-27T12:49:59;101489.16;;;4.60;73.04
32873;BME280;19224;52.462;16.898;2023-02-27T12:55:26;101498.98;;;4.13;75.98
32873;BME280;19224;52.462;16.898;2023-02-27T12:58:34;101490.53;;;4.23;76.57
32873;BME280;19224;52.462;16.898;2023-02-27T13:03:57;101496.73;;;4.28;79.37
32873;BME280;19224;52.462;16.898;2023-02-27T13:06:42;101499.86;;;4.18;80.09
32873;BME280;19224;52.462;16.898;2023-02-27T13:09:49;101500.33;;;4.22;80.78
32873;BME280;19224;52.462;16.898;2023-02-27T13:12:39;101502.09;;;4.26;81.21
32873;BME280;19224;52.462;16.898;2023-02-27T13:15:35;101506.09;;;4.26;80.32
32873;BME280;19224;52.462;16.898;2023-02-27T13:18:17;101499.44;;;4.07;75.96
32873;BME280;19224;52.462;16.898;2023-02-27T13:21:12;101499.41;;;3.93;75.75
32873;BME280;19224;52.462;16.898;2023-02-27T13:26:34;101496.74;;;3.96;75.76
32873;BME280;19224;52.462;16.898;2023-02-27T13:29:05;101499.42;;;4.02;76.76
32873;BME280;19224;52.462;16.898;2023-02-27T13:31:51;101498.09;;;4.19;77.00
32873;BME280;19224;52.462;16.898;2023-02-27T13:34:38;101497.66;;;4.34;76.92
32873;BME280;19224;52.462;16.898;2023-02-27T13:37:09;101502.08;;;4.52;75.90
32873;BME280;19224;52.462;16.898;2023-02-27T13:45:55;101511.39;;;4.68;74.14
32873;BME280;19224;52.462;16.898;2023-02-27T13:47:47;101511.40;;;4.63;75.93
32873;BME280;19224;52.462;16.898;2023-02-27T13:52:56;101512.71;;;4.71;74.69
32873;BME280;19224;52.462;16.898;2023-02-27T13:55:33;101513.14;;;4.70;73.40
32873;BME280;19224;52.462;16.898;2023-02-27T13:58:05;101509.61;;;4.70;72.88
32873;BME280;19224;52.462;16.898;2023-02-27T14:00:36;101516.28;;;4.70;72.84
32873;BME280;19224;52.462;16.898;2023-02-27T14:03:26;101512.30;;;4.58;72.08
32873;BME280;19224;52.462;16.898;2023-02-27T14:06:01;101507.41;;;4.55;73.58
32873;BME280;19224;52.462;16.898;2023-02-27T14:08:48;101513.19;;;4.26;74.05
32873;BME280;19224;52.462;16.898;2023-02-27T14:11:31;101511.87;;;4.15;75.19
32873;BME280;19224;52.462;16.898;2023-02-27T14:14:01;101518.08;;;4.20;76.37
32873;BME280;19224;52.462;16.898;2023-02-27T14:21:59;101518.52;;;4.09;76.59
32873;BME280;19224;52.462;16.898;2023-02-27T14:27:35;101523.41;;;4.25;75.57
32873;BME280;19224;52.462;16.898;2023-02-27T14:30:03;101523.44;;;4.23;73.53
32873;BME280;19224;52.462;16.898;2023-02-27T14:32:38;101522.08;;;4.25;73.05
32873;BME280;19224;52.462;16.898;2023-02-27T14:35:10;101527.40;;;4.28;73.32
32873;BME280;19224;52.462;16.898;2023-02-27T14:37:42;101528.75;;;4.38;73.67
32873;BME280;19224;52.462;16.898;2023-02-27T14:40:26;101532.30;;;4.45;73.41
32873;BME280;19224;52.462;16.898;2023-02-27T14:43:17;101530.96;;;4.19;68.20
32873;BME280;19224;52.462;16.898;2023-02-27T14:45:47;101534.96;;;4.12;67.08
32873;BME280;19224;52.462;16.898;2023-02-27T14:48:25;101544.73;;;4.05;66.84
32873;BME280;19224;52.462;16.898;2023-02-27T14:50:55;101538.95;;;4.04;65.52
32873;BME280;19224;52.462;16.898;2023-02-27T14:53:27;101535.83;;;3.97;64.26
32873;BME280;19224;52.462;16.898;2023-02-27T14:56:00;101540.72;;;4.01;64.58
32873;BME280;19224;52.462;16.898;2023-02-27T14:58:30;101544.30;;;4.06;64.63
32873;BME280;19224;52.462;16.898;2023-02-27T15:01:11;101543.84;;;4.09;64.75
32873;BME280;19224;52.462;16.898;2023-02-27T15:06:39;101543.86;;;4.12;65.80
32873;BME280;19224;52.462;16.898;2023-02-27T15:09:07;101544.73;;;4.20;64.79
32873;BME280;19224;52.462;16.898;2023-02-27T15:11:40;101547.41;;;4.37;65.19
32873;BME280;19224;52.462;16.898;2023-02-27T15:14:17;101553.21;;;4.45;65.31
32873;BME280;19224;52.462;16.898;2023-02-27T15:16:53;101557.21;;;4.45;64.76